Ever Delight — 3FCB8 — position and weather

sailwx.info

Track history (hours):
 
Tides and Currents Weather Stations Pressure Air Temp Water Temp Dewpoint Dewpoint Depression Visibility Wind Speed Wind Dir Waves Ship Positions

Ever Delight

Last reported at 2016-Nov-19 19:33 UTC. Time now 2016-Dec-09 19:50 UTC.
Position N 01°13' E 103°40'.
Warning: this ship's position is 20 days out of date.

Type: Ship (hazmat cat D). MMSI: 351936000.

Date/timePositionNaut miles runAvg speedWind from/ knotsBaromVisibWave heightAir tempDewpointWater temp
2016-Nov-19 19:33N 01°13' E 103°40'7 3.1
2016-Nov-19 17:25N 01°17' E 103°46'0 0.0
2016-Nov-19 16:31N 01°17' E 103°46'0 0.0
2016-Nov-19 14:31N 01°17' E 103°46'0 0.0
2016-Nov-19 11:33N 01°17' E 103°46'1 0.5
2016-Nov-19 09:33N 01°17' E 103°45'  
2016-Nov-14 08:28N 05°35' E 100°13'13 4.5
2016-Nov-14 05:32N 05°25' E 100°22'0 0.0
2016-Nov-14 00:28N 05°25' E 100°22'0 0.1
2016-Nov-13 23:24N 05°25' E 100°22'0 0.0
2016-Nov-13 19:23N 05°25' E 100°22'0 0.1
2016-Nov-13 18:29N 05°25' E 100°22'0 0.1
2016-Nov-13 17:29N 05°25' E 100°22'1 0.3
2016-Nov-13 13:18N 05°26' E 100°21'0 0.0
2016-Nov-13 10:24N 05°26' E 100°21'0 0.0
2016-Nov-13 08:33N 05°26' E 100°21'0 0.1
2016-Nov-13 05:33N 05°26' E 100°21'0 0.0
2016-Nov-13 03:21N 05°26' E 100°21'0 0.1
2016-Nov-12 23:33N 05°26' E 100°21'0 0.0
2016-Nov-12 21:33N 05°26' E 100°21'0 0.0
2016-Nov-12 19:28N 05°26' E 100°21'0 0.1
2016-Nov-12 17:33N 05°26' E 100°21'0 0.1
2016-Nov-12 16:32N 05°26' E 100°21'0 0.0
2016-Nov-12 15:20N 05°26' E 100°21'0 0.0
2016-Nov-12 14:32N 05°26' E 100°21'0 0.1
2016-Nov-12 12:32N 05°26' E 100°21'0 0.0
2016-Nov-12 11:32N 05°26' E 100°21'1 0.2
2016-Nov-12 03:32N 05°25' E 100°22'9 8.4
2016-Nov-12 02:31N 05°32' E 100°17'7 0.9
2016-Nov-11 19:19N 05°33' E 100°10'  
Track history (hours):
 
Tides and Currents Weather Stations Pressure Air Temp Water Temp Dewpoint Dewpoint Depression Visibility Wind Speed Wind Dir Waves Ship Positions

Ever Delight

Last reported at 2016-Nov-19 19:33 UTC. Time now 2016-Dec-09 19:50 UTC.
Position N 01°13' E 103°40'.
Warning: this ship's position is 20 days out of date.

Type: Ship (hazmat cat D). MMSI: 351936000.

Date/timePositionNaut miles runAvg speedWind from/ knotsBaromVisibWave heightAir tempDewpointWater temp
2016-Nov-19 19:33N 01°13' E 103°40'7 3.1
2016-Nov-19 17:25N 01°17' E 103°46'0 0.0
2016-Nov-19 16:31N 01°17' E 103°46'0 0.0
2016-Nov-19 14:31N 01°17' E 103°46'0 0.0
2016-Nov-19 11:33N 01°17' E 103°46'1 0.5
2016-Nov-19 09:33N 01°17' E 103°45'  
2016-Nov-14 08:28N 05°35' E 100°13'13 4.5
2016-Nov-14 05:32N 05°25' E 100°22'0 0.0
2016-Nov-14 00:28N 05°25' E 100°22'0 0.1
2016-Nov-13 23:24N 05°25' E 100°22'0 0.0
2016-Nov-13 19:23N 05°25' E 100°22'0 0.1
2016-Nov-13 18:29N 05°25' E 100°22'0 0.1
2016-Nov-13 17:29N 05°25' E 100°22'1 0.3
2016-Nov-13 13:18N 05°26' E 100°21'0 0.0
2016-Nov-13 10:24N 05°26' E 100°21'0 0.0
2016-Nov-13 08:33N 05°26' E 100°21'0 0.1
2016-Nov-13 05:33N 05°26' E 100°21'0 0.0
2016-Nov-13 03:21N 05°26' E 100°21'0 0.1
2016-Nov-12 23:33N 05°26' E 100°21'0 0.0
2016-Nov-12 21:33N 05°26' E 100°21'0 0.0
2016-Nov-12 19:28N 05°26' E 100°21'0 0.1
2016-Nov-12 17:33N 05°26' E 100°21'0 0.1
2016-Nov-12 16:32N 05°26' E 100°21'0 0.0
2016-Nov-12 15:20N 05°26' E 100°21'0 0.0
2016-Nov-12 14:32N 05°26' E 100°21'0 0.1
2016-Nov-12 12:32N 05°26' E 100°21'0 0.0
2016-Nov-12 11:32N 05°26' E 100°21'1 0.2
2016-Nov-12 03:32N 05°25' E 100°22'9 8.4
2016-Nov-12 02:31N 05°32' E 100°17'7 0.9
2016-Nov-11 19:19N 05°33' E 100°10'  

Dump ship's entire track history